Time;durP1;ratioP1;P1;durP2;ratioP2;P2;SDS_P1;SDS_P2;PMS_P1;PMS_P2;Temp;Humidity;BMP_temperature;BMP_pressure;BME280_temperature;BME280_humidity;BME280_pressure;Samples;Min_cycle;Max_cycle;Signal;HPM_P1;HPM_P2
2022/12/17 13:06:53;;;;;;;4.10;3.77;;;2.20;99.90;0.90;102239.00;;;;5063083;28;20213;-73
2022/12/17 13:09:35;;;;;;;2.80;2.60;;;2.00;99.90;0.80;102220.00;;;;5060922;28;20181;-73
2022/12/17 13:12:01;;;;;;;3.10;2.53;;;1.80;99.90;0.50;102253.00;;;;5060105;28;20201;-72
2022/12/17 13:14:51;;;;;;;3.20;2.50;;;1.70;99.90;0.70;102237.00;;;;5063196;28;20199;-72
2022/12/17 13:17:16;;;;;;;1.17;1.07;;;1.80;99.90;0.50;102243.00;;;;5061369;28;20770;-73
2022/12/17 13:20:22;;;;;;;3.37;2.10;;;1.60;99.90;0.50;102240.00;;;;5061017;28;20190;-73
2022/12/17 13:22:52;;;;;;;8.10;5.37;;;1.70;99.90;0.70;102240.00;;;;5061424;28;20231;-73
2022/12/17 13:25:22;;;;;;;4.00;3.80;;;1.70;99.90;0.80;102240.00;;;;5062309;28;20201;-73
2022/12/17 13:28:24;;;;;;;3.27;3.07;;;1.80;99.90;0.80;102227.00;;;;5060075;28;20571;-73
2022/12/17 13:31:38;;;;;;;4.93;3.83;;;1.70;99.90;0.90;102149.00;;;;5060903;28;20229;-73
2022/12/17 13:34:42;;;;;;;10.27;6.00;;;1.80;99.90;1.40;102166.00;;;;5060941;28;20181;-73
2022/12/17 13:37:38;;;;;;;4.40;4.00;;;2.10;99.90;1.30;102225.00;;;;5059428;28;20227;-73
2022/12/17 13:40:30;;;;;;;2.80;2.63;;;2.10;99.90;0.90;102175.00;;;;5062000;28;20182;-73
2022/12/17 13:42:58;;;;;;;1.33;1.27;;;1.90;99.90;0.40;102235.00;;;;5061925;28;20193;-73
2022/12/17 13:45:55;;;;;;;3.80;3.50;;;1.60;99.90;0.50;102219.00;;;;5060649;28;20185;-73
2022/12/17 13:48:40;;;;;;;2.63;2.53;;;1.60;99.90;0.50;102225.00;;;;5059084;28;20189;-73
2022/12/17 13:51:32;;;;;;;4.23;3.90;;;1.60;99.90;0.80;102223.00;;;;5060384;28;20181;-74
2022/12/17 13:54:18;;;;;;;3.57;3.27;;;1.70;99.90;1.20;102241.00;;;;5044885;28;20178;-73
2022/12/17 13:57:17;;;;;;;10.80;8.37;;;1.90;99.90;1.10;102224.00;;;;5061262;28;20271;-73
2022/12/17 13:59:55;;;;;;;3.67;3.33;;;1.80;99.90;0.80;102234.00;;;;5052270;28;20272;-73
2022/12/17 14:02:32;;;;;;;1.43;1.33;;;1.80;99.90;0.40;102230.00;;;;5060485;28;20641;-73
2022/12/17 14:05:24;;;;;;;2.50;2.03;;;1.60;99.90;1.00;102235.00;;;;5059784;28;20271;-73
2022/12/17 14:08:14;;;;;;;5.50;3.17;;;1.70;99.90;1.00;102147.00;;;;5060820;28;20265;-73
2022/12/17 14:14:36;;;;;;;5.23;4.93;;;1.50;99.90;1.30;102242.00;;;;5059414;28;20277;-70
2022/12/17 14:17:15;;;;;;;6.53;6.23;;;1.70;99.90;1.50;102241.00;;;;5058907;28;20268;-73
2022/12/17 14:19:44;;;;;;;0.53;0.53;;;1.90;99.90;1.50;102251.00;;;;5059642;28;20215;-73
2022/12/17 14:22:28;;;;;;;2.17;2.07;;;2.00;99.90;1.10;102199.00;;;;5060624;28;20703;-73
2022/12/17 14:24:54;;;;;;;5.97;5.50;;;1.90;99.90;1.00;102246.00;;;;5059859;28;20188;-73
2022/12/17 14:27:40;;;;;;;0.60;0.60;;;1.80;99.90;0.80;102243.00;;;;5061947;28;20271;-73
2022/12/17 14:30:47;;;;;;;1.53;1.47;;;1.70;99.90;1.30;102259.00;;;;5059164;28;20185;-73
2022/12/17 14:33:32;;;;;;;6.20;4.07;;;1.80;99.90;0.70;102264.00;;;;5053363;28;20213;-73
2022/12/17 14:36:04;;;;;;;8.80;5.00;;;1.60;99.90;1.00;102260.00;;;;5060313;28;20192;-73
2022/12/17 14:38:33;;;;;;;6.70;2.97;;;1.60;99.90;1.10;102241.00;;;;5056937;28;20213;-73
2022/12/17 14:44:00;;;;;;;1.77;1.70;;;1.70;99.90;0.80;102276.00;;;;5046066;28;20252;-73
2022/12/17 14:46:28;;;;;;;8.57;7.10;;;1.60;99.90;0.90;102275.00;;;;5051316;28;20200;-74
2022/12/17 14:49:00;;;;;;;1.47;1.47;;;1.60;99.90;1.10;102250.00;;;;5050797;28;20189;-74
2022/12/17 14:51:34;;;;;;;2.20;2.10;;;1.60;99.90;1.20;102264.00;;;;5051177;28;20182;-74
2022/12/17 14:54:24;;;;;;;2.80;2.43;;;1.70;99.90;1.30;102266.00;;;;5051043;28;20220;-74
2022/12/17 14:56:53;;;;;;;1.70;1.60;;;1.70;99.90;1.00;102258.00;;;;5047506;28;20167;-74
2022/12/17 14:59:31;;;;;;;7.33;6.83;;;1.60;99.90;0.40;102269.00;;;;5050842;28;20186;-74
2022/12/17 15:01:59;;;;;;;0.53;0.53;;;1.30;99.90;0.60;102273.00;;;;5050716;28;20186;-74
2022/12/17 15:04:25;;;;;;;0.30;0.30;;;1.10;99.90;0.50;102270.00;;;;5052194;28;20205;-73
2022/12/17 15:06:55;;;;;;;4.60;2.17;;;1.20;99.90;0.60;102209.00;;;;5050929;28;20630;-73
2022/12/17 15:09:21;;;;;;;2.00;1.90;;;1.20;99.90;0.40;102267.00;;;;5050842;28;20193;-73
2022/12/17 15:11:48;;;;;;;4.23;3.90;;;1.10;99.90;0.40;102281.00;;;;5057409;28;20202;-74
2022/12/17 15:14:13;;;;;;;2.37;2.20;;;1.00;99.90;0.60;102273.00;;;;5052219;28;20327;-74
2022/12/17 15:16:39;;;;;;;1.50;1.43;;;1.00;99.90;0.20;102285.00;;;;5051997;28;20256;-73
2022/12/17 15:19:05;;;;;;;2.67;2.37;;;0.90;99.90;0.30;102297.00;;;;5033243;28;20197;-74
2022/12/17 15:21:31;;;;;;;6.63;5.60;;;1.00;99.90;0.10;102263.00;;;;5037810;28;20186;-74
2022/12/17 15:23:57;;;;;;;1.97;1.87;;;0.80;99.90;-0.40;102279.00;;;;5055110;28;20205;-74
2022/12/17 15:26:23;;;;;;;2.80;2.60;;;0.50;99.90;-0.30;102275.00;;;;5054114;28;20700;-74
2022/12/17 15:28:49;;;;;;;2.00;1.90;;;0.40;99.90;-0.40;102216.00;;;;5052777;28;20182;-74
2022/12/17 15:31:15;;;;;;;2.03;1.93;;;0.40;99.90;-0.50;102285.00;;;;5053068;28;20178;-74
2022/12/17 15:33:41;;;;;;;0.50;0.50;;;0.30;99.90;-0.60;102301.00;;;;5055987;28;20256;-74
2022/12/17 15:36:10;;;;;;;14.17;7.17;;;0.20;99.90;-0.50;102291.00;;;;5071013;28;20297;-74
2022/12/17 15:38:36;;;;;;;1.73;1.67;;;0.20;99.90;-0.90;102277.00;;;;5027712;28;20185;-74
2022/12/17 15:43:09;;;;;;;1.87;1.80;;;0.10;99.90;-0.90;102275.00;;;;5054590;28;20645;-74
2022/12/17 15:43:51;;;;;;;0.50;0.50;;;0.10;99.90;-1.10;102303.00;;;;5054217;28;20675;-73
2022/12/17 15:46:25;;;;;;;1.67;1.57;;;-0.10;99.90;-1.50;102284.00;;;;5053468;28;20178;-73
2022/12/17 15:48:53;;;;;;;6.10;4.33;;;-0.20;99.90;-1.20;102287.00;;;;5053940;28;20182;-74
2022/12/17 15:51:19;;;;;;;1.50;1.50;;;-0.30;99.90;-1.10;102305.00;;;;5052299;28;20416;-73
2022/12/17 15:53:46;;;;;;;7.13;3.07;;;-0.30;99.90;-1.40;102286.00;;;;5038068;28;20212;-74
2022/12/17 15:56:51;;;;;;;1.87;1.77;;;-0.40;99.90;-1.00;102282.00;;;;5053182;28;20182;-73
2022/12/17 15:59:17;;;;;;;8.93;8.03;;;-0.30;99.90;-1.00;102290.00;;;;5048302;28;20276;-73
2022/12/17 16:01:42;;;;;;;4.73;4.30;;;-0.30;99.90;-0.90;102286.00;;;;5054522;28;20261;-73
2022/12/17 16:04:08;;;;;;;7.30;2.20;;;-0.20;99.90;-0.70;102282.00;;;;5054178;28;20528;-73
2022/12/17 16:06:34;;;;;;;2.33;2.23;;;-0.20;99.90;-1.00;102298.00;;;;5055264;28;20655;-74
2022/12/17 16:09:00;;;;;;;10.70;10.07;;;-0.10;99.90;-1.20;102284.00;;;;5037074;28;20277;-73
2022/12/17 16:11:26;;;;;;;1.37;1.37;;;-0.30;99.90;-1.20;102280.00;;;;5055155;28;20196;-74
2022/12/17 16:13:58;;;;;;;2.10;1.97;;;-0.40;99.90;-1.10;102309.00;;;;5052878;28;20204;-74
2022/12/17 16:16:24;;;;;;;7.90;6.83;;;-0.30;99.90;-0.90;102307.00;;;;5048025;28;20205;-73
2022/12/17 16:18:52;;;;;;;0.73;0.73;;;-0.30;99.90;-1.40;102301.00;;;;5045857;28;20190;-74
2022/12/17 16:21:26;;;;;;;2.43;2.33;;;-0.40;99.90;-1.30;102242.00;;;;5062483;28;20200;-73
2022/12/17 16:23:52;;;;;;;6.73;6.07;;;-0.50;99.90;-1.60;102315.00;;;;5062809;28;20190;-74
2022/12/17 16:26:18;;;;;;;0.63;0.63;;;-0.60;99.90;-1.60;102282.00;;;;5045414;28;20280;-73
2022/12/17 16:28:44;;;;;;;5.23;4.93;;;-0.70;99.90;-1.80;102321.00;;;;5062980;28;20641;-73
2022/12/17 16:31:16;;;;;;;5.77;5.27;;;-0.80;99.90;-1.90;102331.00;;;;5063462;28;20192;-74
2022/12/17 16:33:51;;;;;;;3.33;3.13;;;-1.00;99.90;-2.10;102292.00;;;;5060751;28;20189;-73
2022/12/17 16:36:20;;;;;;;13.13;5.90;;;-1.10;99.90;-2.40;102321.00;;;;5058448;28;20182;-65
2022/12/17 16:38:54;;;;;;;1.80;1.70;;;-1.20;99.90;-2.30;102312.00;;;;5052858;28;20282;-73
2022/12/17 16:41:29;;;;;;;3.23;2.73;;;-1.30;99.90;-2.10;102267.00;;;;5036374;28;20200;-73
2022/12/17 16:43:58;;;;;;;4.67;1.83;;;-1.30;99.90;-2.30;102257.00;;;;5049006;28;20273;-74
2022/12/17 16:46:45;;;;;;;3.10;2.20;;;-1.30;99.90;-2.80;102318.00;;;;5065037;28;20680;-75
2022/12/17 16:49:19;;;;;;;16.37;8.37;;;-1.70;99.90;-3.20;102322.00;;;;5029349;28;20178;-76
2022/12/17 16:52:01;;;;;;;4.83;3.80;;;-1.80;99.90;-3.00;102312.00;;;;5053393;28;20253;-76
2022/12/17 16:54:32;;;;;;;9.57;6.72;;;-1.90;99.90;-3.20;102317.00;;;;5058141;28;20984;-76
2022/12/17 16:57:01;;;;;;;10.93;6.47;;;-2.00;99.90;-3.10;102327.00;;;;5062833;28;20182;-76
2022/12/17 16:59:35;;;;;;;20.13;12.47;;;-2.00;99.90;-2.90;102301.00;;;;5060744;28;20186;-75
2022/12/17 17:02:11;;;;;;;17.63;8.40;;;-2.00;99.90;-2.80;102312.00;;;;5045742;28;20182;-76
2022/12/17 17:04:57;;;;;;;9.60;7.13;;;-1.70;99.90;-2.80;102319.00;;;;5061913;28;20177;-78
2022/12/17 17:07:23;;;;;;;7.53;6.77;;;-1.70;99.90;-3.00;102316.00;;;;5060588;28;20181;-76
2022/12/17 17:09:53;;;;;;;8.53;6.23;;;-1.80;99.90;-2.70;102320.00;;;;5063402;28;20197;-76
2022/12/17 17:12:25;;;;;;;6.23;4.87;;;-1.60;99.90;-2.80;102300.00;;;;5060171;28;20643;-77
2022/12/17 17:14:51;;;;;;;8.00;5.20;;;-1.70;99.90;-2.60;102308.00;;;;5060970;28;20188;-76
2022/12/17 17:17:17;;;;;;;10.87;6.67;;;-1.70;99.90;-2.60;102324.00;;;;5045263;28;20220;-76
2022/12/17 17:19:42;;;;;;;21.37;11.23;;;-1.70;99.90;-2.80;102313.00;;;;5061217;28;20190;-76
2022/12/17 17:22:11;;;;;;;9.60;7.37;;;-1.70;99.90;-3.00;102321.00;;;;5061454;28;20645;-76
2022/12/17 17:24:59;;;;;;;7.43;5.70;;;-1.80;99.90;-2.90;102269.00;;;;5059751;28;20289;-77
2022/12/17 17:28:32;;;;;;;;;;;;;;;;;;;;;
2022/12/17 17:31:12;;;;;;;6.70;4.97;;;-1.80;99.90;-2.80;102313.00;;;;5059211;28;20197;-76
2022/12/17 17:33:45;;;;;;;0.80;0.80;;;-1.80;99.90;-2.80;102323.00;;;;5047972;28;20201;-76
2022/12/17 17:36:27;;;;;;;4.10;3.53;;;-1.80;99.90;-2.60;102274.00;;;;5059861;28;20181;-76
2022/12/17 17:38:58;;;;;;;1.60;1.57;;;-1.80;99.90;-2.20;102330.00;;;;5063059;28;20178;-76
2022/12/17 17:41:28;;;;;;;5.03;4.47;;;-1.50;99.90;-2.80;102324.00;;;;5063212;28;20189;-76
2022/12/17 17:44:00;;;;;;;13.23;8.60;;;-1.70;99.90;-2.70;102321.00;;;;5062851;28;20184;-76
2022/12/17 17:46:28;;;;;;;8.53;5.20;;;-1.60;99.90;-3.00;102257.00;;;;5061414;28;20181;-76
2022/12/17 17:49:14;;;;;;;6.00;3.97;;;-1.80;99.90;-2.40;102318.00;;;;5044709;28;20198;-76
2022/12/17 17:51:43;;;;;;;3.70;3.40;;;-1.60;99.90;-2.50;102331.00;;;;5044916;28;20278;-76
2022/12/17 17:54:11;;;;;;;9.03;6.77;;;-1.60;99.90;-2.40;102302.00;;;;5060581;28;20651;-76
2022/12/17 17:56:40;;;;;;;7.43;4.40;;;-1.60;99.90;-2.80;102318.00;;;;5059917;28;20182;-75
2022/12/17 17:59:29;;;;;;;10.83;5.23;;;-1.70;99.90;-3.00;102321.00;;;;5044038;28;20530;-76
2022/12/17 18:02:11;;;;;;;3.57;3.37;;;-1.70;99.90;-2.50;102315.00;;;;5061446;28;20243;-76
2022/12/17 18:04:55;;;;;;;3.63;3.43;;;-1.70;99.90;-2.20;102311.00;;;;5060067;28;20644;-77
2022/12/17 18:07:45;;;;;;;4.17;3.87;;;-1.60;99.90;-2.50;102329.00;;;;5047076;28;20243;-76
2022/12/17 18:10:23;;;;;;;4.70;4.40;;;-1.50;99.90;-2.50;102338.00;;;;5063077;28;20216;-76
2022/12/17 18:15:50;;;;;;;9.67;8.90;;;-1.60;99.90;-2.70;102343.00;;;;5017077;28;20190;-77
2022/12/17 18:18:19;;;;;;;3.10;2.87;;;-1.70;99.90;-2.30;102326.00;;;;5031999;28;20221;-77
2022/12/17 18:20:48;;;;;;;9.33;5.23;;;-1.40;99.90;-2.80;102340.00;;;;5029502;28;20186;-76
2022/12/17 18:23:24;;;;;;;3.60;3.40;;;-1.60;99.90;-2.30;102332.00;;;;5035198;28;20193;-77
2022/12/17 18:26:16;;;;;;;6.90;6.20;;;-1.40;99.90;-2.30;102337.00;;;;5030252;28;20186;-76
2022/12/17 18:28:52;;;;;;;3.07;2.87;;;-1.40;99.90;-2.70;102349.00;;;;5025922;28;20186;-76
2022/12/17 18:31:22;;;;;;;5.67;4.57;;;-1.50;99.90;-2.60;102342.00;;;;5030171;28;20194;-76
2022/12/17 18:34:07;;;;;;;3.23;3.07;;;-1.50;99.90;-2.60;102337.00;;;;5049735;28;20189;-76
2022/12/17 18:36:53;;;;;;;2.23;2.10;;;-1.60;99.90;-2.50;102332.00;;;;5042023;28;20191;-76
2022/12/17 18:39:25;;;;;;;6.37;5.70;;;-1.50;99.90;-2.60;102349.00;;;;5042348;28;20185;-77
2022/12/17 18:44:41;;;;;;;2.13;1.90;;;-1.50;99.90;-2.40;102331.00;;;;5050294;28;20197;-76
2022/12/17 18:47:09;;;;;;;4.33;3.83;;;-1.50;99.90;-2.40;102347.00;;;;5051524;28;20209;-77
2022/12/17 18:49:43;;;;;;;5.53;5.03;;;-1.50;99.90;-2.20;102347.00;;;;5051968;28;20219;-79
2022/12/17 18:52:10;;;;;;;22.23;6.67;;;-1.40;99.90;-2.10;102338.00;;;;5046653;28;20227;-78
2022/12/17 18:54:39;;;;;;;6.40;4.50;;;-1.20;99.90;-2.20;102346.00;;;;5046678;28;20190;-78
2022/12/17 18:57:05;;;;;;;3.87;3.60;;;-1.40;99.90;-2.10;102336.00;;;;5038463;28;20602;-79
2022/12/17 18:59:31;;;;;;;9.60;4.80;;;-1.30;99.90;-2.50;102347.00;;;;5055396;28;20182;-78
2022/12/17 19:01:58;;;;;;;6.33;5.83;;;-1.50;99.90;-3.00;102361.00;;;;5055062;28;20189;-80
2022/12/17 19:04:25;;;;;;;10.80;7.40;;;-1.60;99.90;-2.80;102312.00;;;;5048590;28;20996;-77
2022/12/17 19:06:52;;;;;;;2.60;2.50;;;-1.70;99.90;-2.60;102373.00;;;;5055540;28;20543;-79
2022/12/17 19:09:24;;;;;;;16.30;8.83;;;-1.60;99.90;-2.20;102375.00;;;;5045309;28;20579;-78
2022/12/17 19:11:51;;;;;;;7.87;6.40;;;-1.50;99.90;-2.40;102360.00;;;;5037060;28;20206;-78
2022/12/17 19:14:24;;;;;;;10.23;7.53;;;-1.50;99.90;-2.80;102353.00;;;;5038622;28;20184;-78
2022/12/17 19:16:52;;;;;;;2.70;2.53;;;-1.60;99.90;-2.60;102351.00;;;;5054353;28;20186;-78
2022/12/17 19:19:18;;;;;;;2.43;2.33;;;-1.60;99.90;-2.40;102370.00;;;;5038079;28;20285;-77
2022/12/17 19:21:45;;;;;;;8.33;7.37;;;-1.60;99.90;-2.80;102367.00;;;;5051204;28;20215;-77
2022/12/17 19:24:18;;;;;;;1.47;1.40;;;-1.70;99.90;-2.70;102358.00;;;;5054492;28;20209;-78
2022/12/17 19:26:51;;;;;;;3.37;3.13;;;-1.60;99.90;-2.80;102289.00;;;;5054738;28;20205;-78
2022/12/17 19:29:31;;;;;;;15.83;9.60;;;-1.70;99.90;-2.60;102344.00;;;;5050033;28;20599;-78
2022/12/17 19:32:00;;;;;;;7.77;6.10;;;-1.60;99.90;-2.40;102354.00;;;;5054349;28;20343;-78
2022/12/17 19:34:28;;;;;;;8.77;5.77;;;-1.60;99.90;-2.70;102373.00;;;;5050863;28;20215;-75
2022/12/17 19:37:00;;;;;;;12.10;5.77;;;-1.60;99.90;-2.80;102368.00;;;;5042080;28;20178;-78
2022/12/17 19:39:34;;;;;;;2.73;2.53;;;-1.70;99.90;-2.50;102386.00;;;;5052228;28;20629;-78
2022/12/17 19:42:23;;;;;;;17.90;6.60;;;-1.70;99.90;-2.70;102365.00;;;;5037266;28;20198;-78
2022/12/17 19:44:57;;;;;;;9.97;4.37;;;-1.60;99.90;-2.50;102371.00;;;;5044702;28;20186;-77
2022/12/17 19:47:43;;;;;;;20.27;10.10;;;-1.60;99.90;-2.70;102370.00;;;;5054503;28;20188;-78
2022/12/17 19:50:20;;;;;;;6.43;4.00;;;-1.70;99.90;-2.60;102393.00;;;;5052435;28;20190;-77
2022/12/17 19:52:58;;;;;;;1.73;1.67;;;-1.60;99.90;-2.50;102346.00;;;;5055466;28;20227;-77
2022/12/17 19:55:47;;;;;;;3.53;3.33;;;-1.60;99.90;-2.40;102378.00;;;;5045573;28;20270;-76
2022/12/17 19:58:30;;;;;;;1.20;1.20;;;-1.60;99.90;-2.60;102388.00;;;;5021528;28;20702;-77
2022/12/17 20:01:11;;;;;;;3.40;3.20;;;-1.60;99.90;-2.20;102303.00;;;;5060794;28;20251;-77
2022/12/17 20:03:49;;;;;;;1.77;1.73;;;-1.60;99.90;-2.30;102363.00;;;;5061688;28;20190;-77
2022/12/17 20:06:42;;;;;;;1.80;1.73;;;-1.50;99.90;-2.50;102370.00;;;;5061644;28;20193;-77
2022/12/17 20:09:32;;;;;;;6.23;5.60;;;-1.50;99.90;-2.60;102296.00;;;;5057118;28;20266;-78
2022/12/17 20:12:27;;;;;;;5.23;3.13;;;-1.60;99.90;-2.70;102373.00;;;;5054135;28;20245;-78
2022/12/17 20:15:21;;;;;;;3.47;3.17;;;-1.70;99.90;-3.20;102359.00;;;;5036023;28;20190;-78
2022/12/17 20:18:05;;;;;;;4.90;4.33;;;-2.00;99.90;-3.20;102369.00;;;;5053754;28;20182;-78
2022/12/17 20:21:14;;;;;;;4.17;3.60;;;-2.00;99.90;-2.70;102361.00;;;;5045344;28;20195;-77
2022/12/17 20:23:59;;;;;;;5.97;4.37;;;-1.90;99.90;-3.10;102170.00;;;;5041467;28;20642;-78
2022/12/17 20:26:49;;;;;;;3.00;2.87;;;-1.90;99.90;-3.00;102345.00;;;;5052591;28;20205;-78
2022/12/17 20:29:33;;;;;;;2.33;2.13;;;-2.00;99.90;-2.60;102333.00;;;;5053602;28;20176;-78
2022/12/17 20:32:24;;;;;;;6.20;5.67;;;-1.80;99.90;-2.60;102346.00;;;;5053038;28;20249;-78
2022/12/17 20:34:55;;;;;;;3.20;2.63;;;-1.70;99.90;-2.90;102363.00;;;;5043172;28;20297;-78
2022/12/17 20:37:21;;;;;;;5.20;4.70;;;-1.80;99.90;-3.00;102364.00;;;;5052954;28;20193;-79
2022/12/17 20:40:28;;;;;;;4.50;4.07;;;-1.90;99.90;-3.10;102354.00;;;;5048752;28;20323;-78
2022/12/17 20:43:33;;;;;;;2.23;2.13;;;-2.10;99.90;-2.60;102352.00;;;;5049034;28;20190;-77
2022/12/17 20:46:36;;;;;;;1.07;1.03;;;-1.80;99.90;-2.20;102349.00;;;;5038893;28;20671;-79
2022/12/17 20:49:25;;;;;;;0.90;0.90;;;-1.70;99.90;-2.50;102345.00;;;;5053473;28;20217;-79
2022/12/17 20:52:19;;;;;;;9.00;5.57;;;-1.70;99.90;-2.80;102371.00;;;;5036874;28;20230;-80
2022/12/17 20:55:16;;;;;;;6.20;5.13;;;-1.70;99.90;-3.00;102341.00;;;;5035538;28;20201;-78
2022/12/17 20:58:19;;;;;;;4.67;4.27;;;-1.90;99.90;-3.20;102374.00;;;;5043986;28;20689;-78
2022/12/17 21:01:19;;;;;;;6.60;6.03;;;-2.00;99.90;-2.70;102381.00;;;;5050996;28;20237;-78
2022/12/17 21:04:26;;;;;;;0.70;0.70;;;-1.90;99.90;-2.90;102387.00;;;;5032166;28;20194;-78
2022/12/17 21:07:30;;;;;;;2.13;1.93;;;-2.00;99.90;-3.00;102377.00;;;;5036019;28;20233;-77
2022/12/17 21:10:38;;;;;;;2.83;2.70;;;-1.90;99.90;-3.10;102394.00;;;;5045694;28;20206;-77
2022/12/17 21:13:40;;;;;;;2.53;2.43;;;-2.00;99.90;-2.70;102395.00;;;;5035050;28;20291;-78
2022/12/17 21:16:36;;;;;;;2.83;2.60;;;-1.80;99.90;-2.70;102392.00;;;;5037896;28;20895;-77
2022/12/17 21:19:35;;;;;;;7.30;6.57;;;-1.80;99.90;-3.20;102378.00;;;;5045754;28;20564;-78
2022/12/17 21:22:29;;;;;;;2.40;2.30;;;-2.00;99.90;-3.20;102392.00;;;;5050315;28;20846;-78
2022/12/17 21:25:24;;;;;;;16.00;6.00;;;-2.10;99.90;-3.20;102411.00;;;;5021029;28;20256;-77
2022/12/17 21:28:23;;;;;;;3.77;3.63;;;-2.10;99.90;-3.00;102403.00;;;;5001598;28;20552;-78
2022/12/17 21:31:23;;;;;;;1.47;1.37;;;-2.00;99.90;-3.20;102328.00;;;;5047737;28;20195;-78
2022/12/17 21:34:40;;;;;;;2.00;1.90;;;-2.10;99.90;-3.10;102402.00;;;;5052137;28;20213;-77
2022/12/17 21:37:35;;;;;;;1.07;1.07;;;-2.00;99.90;-3.20;102411.00;;;;5049819;28;20256;-78
2022/12/17 21:40:39;;;;;;;3.57;3.27;;;-2.20;99.90;-2.90;102425.00;;;;5018248;28;20202;-78
2022/12/17 21:43:37;;;;;;;1.07;1.07;;;-2.00;99.90;-2.90;102421.00;;;;5048521;28;20204;-78
2022/12/17 21:46:35;;;;;;;4.93;4.20;;;-2.00;99.90;-2.90;102419.00;;;;5035417;28;20526;-78
2022/12/17 21:49:20;;;;;;;2.03;1.93;;;-2.00;99.90;-3.20;102397.00;;;;5035818;28;20194;-78
2022/12/17 21:52:12;;;;;;;8.13;4.80;;;-2.20;99.90;-3.80;102405.00;;;;5029508;28;20223;-78
2022/12/17 21:55:18;;;;;;;9.90;8.97;;;-2.40;99.90;-3.70;102411.00;;;;5022908;28;20228;-78
2022/12/17 21:58:25;;;;;;;4.47;4.03;;;-2.60;99.90;-3.70;102353.00;;;;5050073;28;20285;-77
2022/12/17 22:01:20;;;;;;;4.60;4.17;;;-2.40;99.90;-3.80;102408.00;;;;5044592;28;20189;-78
2022/12/17 22:04:24;;;;;;;5.27;4.77;;;-2.50;99.90;-3.40;102410.00;;;;5032673;28;20182;-78
2022/12/17 22:07:26;;;;;;;4.83;4.17;;;-2.50;99.90;-3.60;102410.00;;;;5034816;28;20204;-77
2022/12/17 22:10:30;;;;;;;4.23;3.83;;;-2.40;99.90;-3.50;102415.00;;;;5058984;28;20227;-79
2022/12/17 22:14:05;;;;;;;3.53;3.27;;;-2.40;99.90;-3.40;102419.00;;;;5028368;28;20352;-79
2022/12/17 22:17:15;;;;;;;5.83;5.17;;;-2.40;99.90;-3.40;102420.00;;;;5042560;28;20589;-79
2022/12/17 22:20:23;;;;;;;1.37;1.37;;;-2.40;99.90;-3.20;102425.00;;;;5029936;28;20198;-78
2022/12/17 22:33:28;;;;;;;2.27;2.17;;;-3.00;99.90;-4.10;102424.00;;;;5070368;28;20538;-78
2022/12/17 22:36:01;;;;;;;1.93;1.73;;;-2.90;99.90;-3.80;102432.00;;;;5052070;28;20535;-77
2022/12/17 22:38:31;;;;;;;0.80;0.80;;;-2.80;99.90;-3.50;102429.00;;;;5064039;28;20186;-78
2022/12/17 22:41:07;;;;;;;2.27;2.17;;;-2.60;99.90;-3.70;102423.00;;;;5046343;28;20185;-77
2022/12/17 22:43:34;;;;;;;5.60;5.20;;;-2.60;99.90;-3.40;102428.00;;;;5058685;28;20712;-75
2022/12/17 22:46:02;;;;;;;2.90;2.80;;;-2.50;99.90;-3.70;102421.00;;;;5049699;28;20194;-77
2022/12/17 22:48:33;;;;;;;4.50;4.00;;;-2.60;99.90;-3.50;102404.00;;;;5048841;28;20224;-77
2022/12/17 22:51:09;;;;;;;3.33;3.03;;;-2.50;99.90;-3.30;102408.00;;;;5048865;28;20186;-76
2022/12/17 22:53:35;;;;;;;17.27;9.23;;;-2.50;99.90;-3.40;102404.00;;;;5049229;28;20192;-75
2022/12/17 22:56:05;;;;;;;7.23;6.50;;;-2.50;99.90;-2.90;102414.00;;;;5043545;28;20208;-76
2022/12/17 22:58:31;;;;;;;3.27;1.87;;;-2.40;99.90;-3.30;102426.00;;;;5043910;28;20194;-77
